sensor_id;sensor_type;location;lat;lon;timestamp;P1;durP1;ratioP1;P2;durP2;ratioP2
39654;SDS011;25336;59.944;11.010;2023-02-14T00:01:44;2.58;;;1.75;;
39654;SDS011;25336;59.944;11.010;2023-02-14T00:04:10;2.65;;;1.95;;
39654;SDS011;25336;59.944;11.010;2023-02-14T00:06:36;2.00;;;1.80;;
39654;SDS011;25336;59.944;11.010;2023-02-14T00:09:06;2.25;;;2.05;;
39654;SDS011;25336;59.944;11.010;2023-02-14T00:11:35;1.83;;;1.52;;
39654;SDS011;25336;59.944;11.010;2023-02-14T00:14:01;1.40;;;1.30;;
39654;SDS011;25336;59.944;11.010;2023-02-14T00:16:46;1.52;;;1.42;;
39654;SDS011;25336;59.944;11.010;2023-02-14T00:19:12;1.60;;;1.50;;
39654;SDS011;25336;59.944;11.010;2023-02-14T00:21:39;2.00;;;1.80;;
39654;SDS011;25336;59.944;11.010;2023-02-14T00:24:12;2.42;;;1.85;;
39654;SDS011;25336;59.944;11.010;2023-02-14T00:26:42;1.77;;;1.67;;
39654;SDS011;25336;59.944;11.010;2023-02-14T00:29:12;1.67;;;1.58;;
39654;SDS011;25336;59.944;11.010;2023-02-14T00:31:39;1.73;;;1.63;;
39654;SDS011;25336;59.944;11.010;2023-02-14T00:34:06;3.33;;;1.60;;
39654;SDS011;25336;59.944;11.010;2023-02-14T00:36:32;1.60;;;1.30;;
39654;SDS011;25336;59.944;11.010;2023-02-14T00:38:58;1.75;;;1.65;;
39654;SDS011;25336;59.944;11.010;2023-02-14T00:41:25;5.20;;;2.25;;
39654;SDS011;25336;59.944;11.010;2023-02-14T00:43:51;1.70;;;1.60;;
39654;SDS011;25336;59.944;11.010;2023-02-14T00:46:18;1.55;;;1.40;;
39654;SDS011;25336;59.944;11.010;2023-02-14T00:48:44;1.52;;;1.42;;
39654;SDS011;25336;59.944;11.010;2023-02-14T00:51:10;1.58;;;1.48;;
39654;SDS011;25336;59.944;11.010;2023-02-14T00:53:36;2.28;;;1.40;;
39654;SDS011;25336;59.944;11.010;2023-02-14T00:56:02;1.65;;;1.50;;
39654;SDS011;25336;59.944;11.010;2023-02-14T00:58:28;2.25;;;1.80;;
39654;SDS011;25336;59.944;11.010;2023-02-14T01:00:54;1.40;;;1.30;;
39654;SDS011;25336;59.944;11.010;2023-02-14T01:03:20;2.45;;;1.50;;
39654;SDS011;25336;59.944;11.010;2023-02-14T01:05:49;1.50;;;1.40;;
39654;SDS011;25336;59.944;11.010;2023-02-14T01:08:14;2.15;;;1.48;;
39654;SDS011;25336;59.944;11.010;2023-02-14T01:10:40;1.60;;;1.50;;
39654;SDS011;25336;59.944;11.010;2023-02-14T01:13:07;1.50;;;1.40;;
39654;SDS011;25336;59.944;11.010;2023-02-14T01:15:37;3.53;;;1.48;;
39654;SDS011;25336;59.944;11.010;2023-02-14T01:18:03;1.75;;;1.42;;
39654;SDS011;25336;59.944;11.010;2023-02-14T01:20:29;2.60;;;1.60;;
39654;SDS011;25336;59.944;11.010;2023-02-14T01:22:54;2.75;;;1.58;;
39654;SDS011;25336;59.944;11.010;2023-02-14T01:25:20;1.65;;;1.55;;
39654;SDS011;25336;59.944;11.010;2023-02-14T01:27:45;1.33;;;1.27;;
39654;SDS011;25336;59.944;11.010;2023-02-14T01:30:11;1.55;;;1.33;;
39654;SDS011;25336;59.944;11.010;2023-02-14T01:32:37;1.63;;;1.52;;
39654;SDS011;25336;59.944;11.010;2023-02-14T01:35:03;2.20;;;2.00;;
39654;SDS011;25336;59.944;11.010;2023-02-14T01:37:29;2.60;;;1.80;;
39654;SDS011;25336;59.944;11.010;2023-02-14T01:39:54;2.67;;;2.47;;
39654;SDS011;25336;59.944;11.010;2023-02-14T01:42:20;2.70;;;2.38;;
39654;SDS011;25336;59.944;11.010;2023-02-14T01:47:11;2.38;;;2.15;;
39654;SDS011;25336;59.944;11.010;2023-02-14T01:49:40;1.88;;;1.70;;
39654;SDS011;25336;59.944;11.010;2023-02-14T01:52:14;1.95;;;1.80;;
39654;SDS011;25336;59.944;11.010;2023-02-14T01:54:45;2.22;;;2.05;;
39654;SDS011;25336;59.944;11.010;2023-02-14T01:57:15;2.97;;;2.10;;
39654;SDS011;25336;59.944;11.010;2023-02-14T01:59:46;2.17;;;1.98;;
39654;SDS011;25336;59.944;11.010;2023-02-14T02:02:17;2.05;;;1.85;;
39654;SDS011;25336;59.944;11.010;2023-02-14T02:04:48;2.28;;;2.00;;
39654;SDS011;25336;59.944;11.010;2023-02-14T02:07:17;1.95;;;1.75;;
39654;SDS011;25336;59.944;11.010;2023-02-14T02:09:50;2.85;;;2.10;;
39654;SDS011;25336;59.944;11.010;2023-02-14T02:14:45;2.05;;;1.83;;
39654;SDS011;25336;59.944;11.010;2023-02-14T02:17:36;2.20;;;2.08;;
39654;SDS011;25336;59.944;11.010;2023-02-14T02:20:22;2.08;;;1.95;;
39654;SDS011;25336;59.944;11.010;2023-02-14T02:28:23;2.45;;;1.75;;
39654;SDS011;25336;59.944;11.010;2023-02-14T02:37:23;3.22;;;1.75;;
39654;SDS011;25336;59.944;11.010;2023-02-14T02:46:11;1.77;;;1.60;;
39654;SDS011;25336;59.944;11.010;2023-02-14T02:49:12;1.75;;;1.65;;
39654;SDS011;25336;59.944;11.010;2023-02-14T02:52:24;2.33;;;2.10;;
39654;SDS011;25336;59.944;11.010;2023-02-14T02:55:21;3.35;;;2.28;;
39654;SDS011;25336;59.944;11.010;2023-02-14T02:57:52;2.55;;;1.90;;
39654;SDS011;25336;59.944;11.010;2023-02-14T03:00:20;2.42;;;2.22;;
39654;SDS011;25336;59.944;11.010;2023-02-14T03:02:48;2.22;;;2.05;;
39654;SDS011;25336;59.944;11.010;2023-02-14T03:05:34;2.40;;;2.20;;
39654;SDS011;25336;59.944;11.010;2023-02-14T03:08:02;2.60;;;2.30;;
39654;SDS011;25336;59.944;11.010;2023-02-14T03:10:32;2.17;;;1.98;;
39654;SDS011;25336;59.944;11.010;2023-02-14T03:21:04;4.22;;;2.90;;
39654;SDS011;25336;59.944;11.010;2023-02-14T03:23:38;2.67;;;2.13;;
39654;SDS011;25336;59.944;11.010;2023-02-14T03:26:34;2.47;;;2.28;;
39654;SDS011;25336;59.944;11.010;2023-02-14T03:31:53;2.45;;;2.25;;
39654;SDS011;25336;59.944;11.010;2023-02-14T03:34:22;3.28;;;2.10;;
39654;SDS011;25336;59.944;11.010;2023-02-14T03:36:54;2.25;;;2.03;;
39654;SDS011;25336;59.944;11.010;2023-02-14T03:42:30;2.90;;;2.58;;
39654;SDS011;25336;59.944;11.010;2023-02-14T03:44:56;3.03;;;2.20;;
39654;SDS011;25336;59.944;11.010;2023-02-14T03:47:25;3.15;;;2.30;;
39654;SDS011;25336;59.944;11.010;2023-02-14T03:50:04;2.42;;;2.03;;
39654;SDS011;25336;59.944;11.010;2023-02-14T03:52:35;3.92;;;2.60;;
39654;SDS011;25336;59.944;11.010;2023-02-14T03:55:03;2.45;;;2.22;;
39654;SDS011;25336;59.944;11.010;2023-02-14T03:57:36;2.35;;;2.10;;
39654;SDS011;25336;59.944;11.010;2023-02-14T04:00:21;3.00;;;2.70;;
39654;SDS011;25336;59.944;11.010;2023-02-14T04:02:48;4.53;;;3.08;;
39654;SDS011;25336;59.944;11.010;2023-02-14T04:05:21;3.28;;;2.35;;
39654;SDS011;25336;59.944;11.010;2023-02-14T04:07:51;3.55;;;2.70;;
39654;SDS011;25336;59.944;11.010;2023-02-14T04:10:19;4.15;;;3.20;;
39654;SDS011;25336;59.944;11.010;2023-02-14T04:12:45;2.90;;;2.17;;
39654;SDS011;25336;59.944;11.010;2023-02-14T04:15:11;3.03;;;2.72;;
39654;SDS011;25336;59.944;11.010;2023-02-14T04:17:38;4.80;;;2.63;;
39654;SDS011;25336;59.944;11.010;2023-02-14T04:20:22;3.00;;;2.60;;
39654;SDS011;25336;59.944;11.010;2023-02-14T04:22:48;3.72;;;2.92;;
39654;SDS011;25336;59.944;11.010;2023-02-14T04:25:15;2.65;;;2.42;;
39654;SDS011;25336;59.944;11.010;2023-02-14T04:27:41;4.45;;;2.78;;
39654;SDS011;25336;59.944;11.010;2023-02-14T04:30:07;4.97;;;2.75;;
39654;SDS011;25336;59.944;11.010;2023-02-14T04:32:33;2.70;;;2.50;;
39654;SDS011;25336;59.944;11.010;2023-02-14T04:34:58;4.45;;;2.65;;
39654;SDS011;25336;59.944;11.010;2023-02-14T04:37:24;3.33;;;2.63;;
39654;SDS011;25336;59.944;11.010;2023-02-14T04:39:49;3.03;;;2.80;;
39654;SDS011;25336;59.944;11.010;2023-02-14T04:42:15;4.22;;;2.88;;
39654;SDS011;25336;59.944;11.010;2023-02-14T04:44:40;3.20;;;2.90;;
39654;SDS011;25336;59.944;11.010;2023-02-14T04:47:06;3.10;;;2.90;;
39654;SDS011;25336;59.944;11.010;2023-02-14T04:49:32;3.20;;;2.90;;
39654;SDS011;25336;59.944;11.010;2023-02-14T04:51:58;4.72;;;3.13;;
39654;SDS011;25336;59.944;11.010;2023-02-14T04:54:24;3.05;;;2.78;;
39654;SDS011;25336;59.944;11.010;2023-02-14T04:56:50;4.10;;;3.63;;
39654;SDS011;25336;59.944;11.010;2023-02-14T04:59:15;5.70;;;2.50;;
39654;SDS011;25336;59.944;11.010;2023-02-14T05:01:41;6.00;;;3.50;;
39654;SDS011;25336;59.944;11.010;2023-02-14T05:04:07;3.22;;;2.92;;
39654;SDS011;25336;59.944;11.010;2023-02-14T05:06:33;3.45;;;2.97;;
39654;SDS011;25336;59.944;11.010;2023-02-14T05:08:59;4.40;;;3.35;;
39654;SDS011;25336;59.944;11.010;2023-02-14T05:11:25;3.15;;;2.95;;
39654;SDS011;25336;59.944;11.010;2023-02-14T05:13:52;4.57;;;3.03;;
39654;SDS011;25336;59.944;11.010;2023-02-14T05:16:18;2.92;;;2.67;;
39654;SDS011;25336;59.944;11.010;2023-02-14T05:18:43;5.03;;;3.60;;
39654;SDS011;25336;59.944;11.010;2023-02-14T05:21:09;5.40;;;3.58;;
39654;SDS011;25336;59.944;11.010;2023-02-14T05:23:35;3.95;;;3.08;;
39654;SDS011;25336;59.944;11.010;2023-02-14T05:26:00;5.47;;;3.90;;
39654;SDS011;25336;59.944;11.010;2023-02-14T05:28:26;5.15;;;4.68;;
39654;SDS011;25336;59.944;11.010;2023-02-14T05:30:52;4.03;;;3.63;;
39654;SDS011;25336;59.944;11.010;2023-02-14T05:33:18;4.88;;;4.03;;
39654;SDS011;25336;59.944;11.010;2023-02-14T05:35:43;4.63;;;4.03;;
39654;SDS011;25336;59.944;11.010;2023-02-14T05:38:09;4.82;;;3.85;;
39654;SDS011;25336;59.944;11.010;2023-02-14T05:40:37;6.45;;;4.47;;
39654;SDS011;25336;59.944;11.010;2023-02-14T05:43:02;5.63;;;4.00;;
39654;SDS011;25336;59.944;11.010;2023-02-14T05:45:28;4.28;;;3.80;;
39654;SDS011;25336;59.944;11.010;2023-02-14T05:47:53;8.13;;;4.20;;
39654;SDS011;25336;59.944;11.010;2023-02-14T05:50:19;7.38;;;4.72;;
39654;SDS011;25336;59.944;11.010;2023-02-14T05:52:44;5.57;;;4.45;;
39654;SDS011;25336;59.944;11.010;2023-02-14T05:55:10;5.05;;;4.07;;
39654;SDS011;25336;59.944;11.010;2023-02-14T05:57:35;5.45;;;4.53;;
39654;SDS011;25336;59.944;11.010;2023-02-14T06:00:02;7.25;;;5.78;;
39654;SDS011;25336;59.944;11.010;2023-02-14T06:02:30;5.32;;;4.20;;
39654;SDS011;25336;59.944;11.010;2023-02-14T06:04:56;6.57;;;4.53;;
39654;SDS011;25336;59.944;11.010;2023-02-14T06:07:21;5.40;;;4.65;;
39654;SDS011;25336;59.944;11.010;2023-02-14T06:09:47;5.43;;;4.72;;
39654;SDS011;25336;59.944;11.010;2023-02-14T06:12:13;9.00;;;4.97;;
39654;SDS011;25336;59.944;11.010;2023-02-14T06:14:38;6.22;;;4.32;;
39654;SDS011;25336;59.944;11.010;2023-02-14T06:17:06;5.30;;;4.80;;
39654;SDS011;25336;59.944;11.010;2023-02-14T06:19:33;4.90;;;4.40;;
39654;SDS011;25336;59.944;11.010;2023-02-14T06:21:58;8.27;;;4.93;;
39654;SDS011;25336;59.944;11.010;2023-02-14T06:24:24;8.25;;;4.35;;
39654;SDS011;25336;59.944;11.010;2023-02-14T06:26:49;5.03;;;4.53;;
39654;SDS011;25336;59.944;11.010;2023-02-14T06:29:15;6.97;;;4.47;;
39654;SDS011;25336;59.944;11.010;2023-02-14T06:31:41;4.63;;;4.22;;
39654;SDS011;25336;59.944;11.010;2023-02-14T06:34:07;6.80;;;4.93;;
39654;SDS011;25336;59.944;11.010;2023-02-14T06:36:33;5.72;;;4.75;;
39654;SDS011;25336;59.944;11.010;2023-02-14T06:38:58;7.22;;;4.97;;
39654;SDS011;25336;59.944;11.010;2023-02-14T06:41:24;6.35;;;5.00;;
39654;SDS011;25336;59.944;11.010;2023-02-14T06:43:49;10.52;;;5.30;;
39654;SDS011;25336;59.944;11.010;2023-02-14T06:46:16;12.65;;;5.90;;
39654;SDS011;25336;59.944;11.010;2023-02-14T06:48:42;8.45;;;5.47;;
39654;SDS011;25336;59.944;11.010;2023-02-14T06:51:08;6.70;;;5.90;;
39654;SDS011;25336;59.944;11.010;2023-02-14T06:53:33;9.15;;;5.95;;
39654;SDS011;25336;59.944;11.010;2023-02-14T06:55:59;11.48;;;6.78;;
39654;SDS011;25336;59.944;11.010;2023-02-14T06:58:25;14.70;;;7.22;;
39654;SDS011;25336;59.944;11.010;2023-02-14T07:00:51;20.70;;;7.72;;
39654;SDS011;25336;59.944;11.010;2023-02-14T07:03:19;11.75;;;7.00;;
39654;SDS011;25336;59.944;11.010;2023-02-14T07:05:45;12.45;;;6.25;;
39654;SDS011;25336;59.944;11.010;2023-02-14T07:08:10;8.35;;;6.13;;
39654;SDS011;25336;59.944;11.010;2023-02-14T07:10:36;44.28;;;9.85;;
39654;SDS011;25336;59.944;11.010;2023-02-14T07:13:01;27.85;;;9.50;;
39654;SDS011;25336;59.944;11.010;2023-02-14T07:15:27;54.60;;;11.75;;
39654;SDS011;25336;59.944;11.010;2023-02-14T07:17:53;32.58;;;10.30;;
39654;SDS011;25336;59.944;11.010;2023-02-14T07:20:18;53.03;;;12.20;;
39654;SDS011;25336;59.944;11.010;2023-02-14T07:22:44;95.22;;;12.65;;
39654;SDS011;25336;59.944;11.010;2023-02-14T07:25:10;80.95;;;14.30;;
39654;SDS011;25336;59.944;11.010;2023-02-14T07:27:36;51.80;;;13.35;;
39654;SDS011;25336;59.944;11.010;2023-02-14T07:30:03;31.60;;;11.23;;
39654;SDS011;25336;59.944;11.010;2023-02-14T07:32:29;56.78;;;12.27;;
39654;SDS011;25336;59.944;11.010;2023-02-14T07:34:55;25.40;;;10.60;;
39654;SDS011;25336;59.944;11.010;2023-02-14T07:37:21;22.75;;;11.98;;
39654;SDS011;25336;59.944;11.010;2023-02-14T07:39:46;57.58;;;13.13;;
39654;SDS011;25336;59.944;11.010;2023-02-14T07:42:12;28.23;;;11.35;;
39654;SDS011;25336;59.944;11.010;2023-02-14T07:44:37;72.05;;;12.10;;
39654;SDS011;25336;59.944;11.010;2023-02-14T07:47:04;35.00;;;9.98;;
39654;SDS011;25336;59.944;11.010;2023-02-14T07:49:33;66.20;;;10.63;;
39654;SDS011;25336;59.944;11.010;2023-02-14T07:52:00;30.80;;;9.15;;
39654;SDS011;25336;59.944;11.010;2023-02-14T07:54:26;42.95;;;10.25;;
39654;SDS011;25336;59.944;11.010;2023-02-14T07:56:51;54.22;;;11.95;;
39654;SDS011;25336;59.944;11.010;2023-02-14T07:59:17;50.65;;;10.55;;
39654;SDS011;25336;59.944;11.010;2023-02-14T08:01:43;55.13;;;12.35;;
39654;SDS011;25336;59.944;11.010;2023-02-14T08:04:09;59.67;;;10.40;;
39654;SDS011;25336;59.944;11.010;2023-02-14T08:06:37;69.20;;;12.38;;
39654;SDS011;25336;59.944;11.010;2023-02-14T08:09:03;50.63;;;10.95;;
39654;SDS011;25336;59.944;11.010;2023-02-14T08:11:28;82.00;;;10.07;;
39654;SDS011;25336;59.944;11.010;2023-02-14T08:14:13;51.25;;;11.90;;
39654;SDS011;25336;59.944;11.010;2023-02-14T08:16:38;16.98;;;7.18;;
39654;SDS011;25336;59.944;11.010;2023-02-14T08:19:04;32.30;;;10.20;;
39654;SDS011;25336;59.944;11.010;2023-02-14T08:21:29;24.48;;;10.43;;
39654;SDS011;25336;59.944;11.010;2023-02-14T08:23:56;37.50;;;11.68;;
39654;SDS011;25336;59.944;11.010;2023-02-14T08:26:22;19.33;;;13.23;;
39654;SDS011;25336;59.944;11.010;2023-02-14T08:28:47;18.13;;;11.60;;
39654;SDS011;25336;59.944;11.010;2023-02-14T08:31:20;15.75;;;9.40;;
39654;SDS011;25336;59.944;11.010;2023-02-14T08:33:50;38.95;;;20.65;;
39654;SDS011;25336;59.944;11.010;2023-02-14T08:36:16;24.33;;;13.43;;
39654;SDS011;25336;59.944;11.010;2023-02-14T08:38:42;15.88;;;10.82;;
39654;SDS011;25336;59.944;11.010;2023-02-14T08:41:09;22.67;;;11.20;;
39654;SDS011;25336;59.944;11.010;2023-02-14T08:43:35;24.00;;;14.32;;
39654;SDS011;25336;59.944;11.010;2023-02-14T08:46:01;35.58;;;13.05;;
39654;SDS011;25336;59.944;11.010;2023-02-14T08:48:26;53.58;;;18.83;;
39654;SDS011;25336;59.944;11.010;2023-02-14T08:50:52;41.50;;;17.17;;
39654;SDS011;25336;59.944;11.010;2023-02-14T08:53:17;16.52;;;9.95;;
39654;SDS011;25336;59.944;11.010;2023-02-14T08:55:43;22.35;;;8.75;;
39654;SDS011;25336;59.944;11.010;2023-02-14T08:58:09;22.48;;;11.88;;
39654;SDS011;25336;59.944;11.010;2023-02-14T09:00:34;39.40;;;17.70;;
39654;SDS011;25336;59.944;11.010;2023-02-14T09:03:00;61.60;;;13.55;;
39654;SDS011;25336;59.944;11.010;2023-02-14T09:05:25;113.22;;;14.45;;
39654;SDS011;25336;59.944;11.010;2023-02-14T09:07:51;54.65;;;11.48;;
39654;SDS011;25336;59.944;11.010;2023-02-14T09:10:17;96.65;;;11.65;;
39654;SDS011;25336;59.944;11.010;2023-02-14T09:12:43;39.97;;;11.52;;
39654;SDS011;25336;59.944;11.010;2023-02-14T09:15:09;59.05;;;12.68;;
39654;SDS011;25336;59.944;11.010;2023-02-14T09:17:36;31.38;;;10.20;;
39654;SDS011;25336;59.944;11.010;2023-02-14T09:20:03;52.95;;;10.52;;
39654;SDS011;25336;59.944;11.010;2023-02-14T09:22:35;36.92;;;11.13;;
39654;SDS011;25336;59.944;11.010;2023-02-14T09:25:00;29.95;;;11.13;;
39654;SDS011;25336;59.944;11.010;2023-02-14T09:27:26;50.05;;;12.43;;
39654;SDS011;25336;59.944;11.010;2023-02-14T09:29:52;30.02;;;11.68;;
39654;SDS011;25336;59.944;11.010;2023-02-14T09:32:17;15.90;;;9.73;;
39654;SDS011;25336;59.944;11.010;2023-02-14T09:34:43;14.65;;;9.05;;
39654;SDS011;25336;59.944;11.010;2023-02-14T09:37:09;20.40;;;10.02;;
39654;SDS011;25336;59.944;11.010;2023-02-14T09:39:54;23.65;;;9.77;;
39654;SDS011;25336;59.944;11.010;2023-02-14T09:42:36;17.70;;;9.25;;
39654;SDS011;25336;59.944;11.010;2023-02-14T09:45:29;32.95;;;11.13;;
39654;SDS011;25336;59.944;11.010;2023-02-14T09:48:11;20.15;;;10.25;;
39654;SDS011;25336;59.944;11.010;2023-02-14T09:50:45;31.35;;;12.02;;
39654;SDS011;25336;59.944;11.010;2023-02-14T09:58:43;20.00;;;11.15;;
39654;SDS011;25336;59.944;11.010;2023-02-14T10:01:24;33.75;;;11.20;;
39654;SDS011;25336;59.944;11.010;2023-02-14T10:06:35;30.20;;;10.80;;
39654;SDS011;25336;59.944;11.010;2023-02-14T10:09:14;41.20;;;13.55;;
39654;SDS011;25336;59.944;11.010;2023-02-14T10:11:59;56.17;;;12.82;;
39654;SDS011;25336;59.944;11.010;2023-02-14T10:14:27;77.10;;;15.20;;
39654;SDS011;25336;59.944;11.010;2023-02-14T10:17:00;63.47;;;12.07;;
39654;SDS011;25336;59.944;11.010;2023-02-14T10:19:43;13.25;;;8.60;;
39654;SDS011;25336;59.944;11.010;2023-02-14T10:22:20;29.05;;;11.98;;
39654;SDS011;25336;59.944;11.010;2023-02-14T10:24:52;40.13;;;10.25;;
39654;SDS011;25336;59.944;11.010;2023-02-14T10:27:30;25.27;;;9.77;;
39654;SDS011;25336;59.944;11.010;2023-02-14T10:29:58;22.30;;;7.90;;
39654;SDS011;25336;59.944;11.010;2023-02-14T10:32:37;14.00;;;9.48;;
39654;SDS011;25336;59.944;11.010;2023-02-14T10:35:17;10.73;;;8.85;;
39654;SDS011;25336;59.944;11.010;2023-02-14T10:41:06;13.80;;;9.50;;
39654;SDS011;25336;59.944;11.010;2023-02-14T10:43:35;12.85;;;9.73;;
39654;SDS011;25336;59.944;11.010;2023-02-14T10:49:22;15.32;;;10.50;;
39654;SDS011;25336;59.944;11.010;2023-02-14T10:52:22;17.05;;;10.00;;
39654;SDS011;25336;59.944;11.010;2023-02-14T10:54:52;15.38;;;9.95;;
39654;SDS011;25336;59.944;11.010;2023-02-14T10:59:53;21.27;;;11.18;;
39654;SDS011;25336;59.944;11.010;2023-02-14T11:02:39;14.77;;;9.35;;
39654;SDS011;25336;59.944;11.010;2023-02-14T11:05:13;13.95;;;9.35;;
39654;SDS011;25336;59.944;11.010;2023-02-14T11:07:52;15.23;;;9.35;;
39654;SDS011;25336;59.944;11.010;2023-02-14T11:10:19;20.35;;;11.18;;
39654;SDS011;25336;59.944;11.010;2023-02-14T11:12:49;26.42;;;13.63;;
39654;SDS011;25336;59.944;11.010;2023-02-14T11:15:19;24.98;;;12.77;;
39654;SDS011;25336;59.944;11.010;2023-02-14T11:17:46;18.52;;;10.77;;
39654;SDS011;25336;59.944;11.010;2023-02-14T11:22:46;15.93;;;10.30;;
39654;SDS011;25336;59.944;11.010;2023-02-14T11:25:24;14.38;;;11.15;;
39654;SDS011;25336;59.944;11.010;2023-02-14T11:27:58;22.40;;;11.55;;
39654;SDS011;25336;59.944;11.010;2023-02-14T11:30:27;14.30;;;9.63;;
39654;SDS011;25336;59.944;11.010;2023-02-14T11:32:57;15.82;;;9.77;;
39654;SDS011;25336;59.944;11.010;2023-02-14T11:35:25;14.73;;;9.60;;
39654;SDS011;25336;59.944;11.010;2023-02-14T11:37:57;11.02;;;7.68;;
39654;SDS011;25336;59.944;11.010;2023-02-14T11:43:01;16.38;;;10.38;;
39654;SDS011;25336;59.944;11.010;2023-02-14T11:45:43;15.75;;;10.15;;
39654;SDS011;25336;59.944;11.010;2023-02-14T11:48:18;21.20;;;11.70;;
39654;SDS011;25336;59.944;11.010;2023-02-14T11:50:53;17.73;;;11.55;;
39654;SDS011;25336;59.944;11.010;2023-02-14T11:54:04;19.40;;;12.27;;
39654;SDS011;25336;59.944;11.010;2023-02-14T11:56:16;34.08;;;12.73;;
39654;SDS011;25336;59.944;11.010;2023-02-14T11:58:53;49.05;;;13.07;;
39654;SDS011;25336;59.944;11.010;2023-02-14T12:01:24;55.33;;;13.70;;
39654;SDS011;25336;59.944;11.010;2023-02-14T12:03:52;22.83;;;10.82;;
39654;SDS011;25336;59.944;11.010;2023-02-14T12:06:23;21.73;;;8.73;;
39654;SDS011;25336;59.944;11.010;2023-02-14T12:08:50;29.30;;;10.15;;
39654;SDS011;25336;59.944;11.010;2023-02-14T12:11:30;29.70;;;9.23;;
39654;SDS011;25336;59.944;11.010;2023-02-14T12:13:57;31.42;;;9.18;;
39654;SDS011;25336;59.944;11.010;2023-02-14T12:16:34;17.42;;;8.07;;
39654;SDS011;25336;59.944;11.010;2023-02-14T12:19:12;35.00;;;9.82;;
39654;SDS011;25336;59.944;11.010;2023-02-14T12:21:47;10.57;;;7.60;;
39654;SDS011;25336;59.944;11.010;2023-02-14T12:27:08;24.65;;;8.68;;
39654;SDS011;25336;59.944;11.010;2023-02-14T12:34:44;16.83;;;9.90;;
39654;SDS011;25336;59.944;11.010;2023-02-14T12:37:30;16.55;;;8.63;;
39654;SDS011;25336;59.944;11.010;2023-02-14T12:40:21;17.00;;;9.00;;
39654;SDS011;25336;59.944;11.010;2023-02-14T12:43:23;23.23;;;8.35;;
39654;SDS011;25336;59.944;11.010;2023-02-14T12:54:40;12.02;;;8.10;;
39654;SDS011;25336;59.944;11.010;2023-02-14T12:57:25;13.27;;;8.82;;
39654;SDS011;25336;59.944;11.010;2023-02-14T13:00:26;15.18;;;7.88;;
39654;SDS011;25336;59.944;11.010;2023-02-14T13:06:09;14.65;;;7.22;;
39654;SDS011;25336;59.944;11.010;2023-02-14T13:11:34;14.60;;;8.20;;
39654;SDS011;25336;59.944;11.010;2023-02-14T13:17:01;16.00;;;8.35;;
39654;SDS011;25336;59.944;11.010;2023-02-14T13:22:21;21.95;;;9.88;;
39654;SDS011;25336;59.944;11.010;2023-02-14T13:24:49;10.80;;;8.20;;
39654;SDS011;25336;59.944;11.010;2023-02-14T13:27:24;10.32;;;8.35;;
39654;SDS011;25336;59.944;11.010;2023-02-14T13:29:55;12.00;;;9.05;;
39654;SDS011;25336;59.944;11.010;2023-02-14T13:32:27;12.43;;;8.18;;
39654;SDS011;25336;59.944;11.010;2023-02-14T13:34:56;11.68;;;8.23;;
39654;SDS011;25336;59.944;11.010;2023-02-14T13:37:23;21.13;;;9.00;;
39654;SDS011;25336;59.944;11.010;2023-02-14T13:39:55;25.25;;;9.68;;
39654;SDS011;25336;59.944;11.010;2023-02-14T13:53:35;12.48;;;8.73;;
39654;SDS011;25336;59.944;11.010;2023-02-14T13:56:04;18.63;;;11.07;;
39654;SDS011;25336;59.944;11.010;2023-02-14T13:58:52;13.65;;;9.98;;
39654;SDS011;25336;59.944;11.010;2023-02-14T14:01:35;14.50;;;9.40;;
39654;SDS011;25336;59.944;11.010;2023-02-14T14:17:31;17.40;;;11.15;;
39654;SDS011;25336;59.944;11.010;2023-02-14T14:22:47;18.92;;;10.60;;
39654;SDS011;25336;59.944;11.010;2023-02-14T14:25:28;12.93;;;9.00;;
39654;SDS011;25336;59.944;11.010;2023-02-14T14:27:57;17.35;;;10.70;;
39654;SDS011;25336;59.944;11.010;2023-02-14T14:30:28;15.98;;;11.15;;
39654;SDS011;25336;59.944;11.010;2023-02-14T14:35:51;10.32;;;7.10;;
39654;SDS011;25336;59.944;11.010;2023-02-14T14:38:20;9.50;;;7.18;;
39654;SDS011;25336;59.944;11.010;2023-02-14T14:40:46;8.00;;;5.47;;
39654;SDS011;25336;59.944;11.010;2023-02-14T14:43:19;6.80;;;4.68;;
39654;SDS011;25336;59.944;11.010;2023-02-14T14:45:47;4.93;;;4.07;;
39654;SDS011;25336;59.944;11.010;2023-02-14T14:48:17;6.70;;;4.82;;
39654;SDS011;25336;59.944;11.010;2023-02-14T14:50:51;6.68;;;5.10;;
39654;SDS011;25336;59.944;11.010;2023-02-14T14:53:18;4.63;;;4.22;;
39654;SDS011;25336;59.944;11.010;2023-02-14T14:55:52;5.18;;;4.68;;
39654;SDS011;25336;59.944;11.010;2023-02-14T14:58:35;9.73;;;6.25;;
39654;SDS011;25336;59.944;11.010;2023-02-14T15:01:04;10.68;;;6.85;;
39654;SDS011;25336;59.944;11.010;2023-02-14T15:03:32;9.48;;;6.28;;
39654;SDS011;25336;59.944;11.010;2023-02-14T15:06:05;11.88;;;7.65;;
39654;SDS011;25336;59.944;11.010;2023-02-14T15:08:37;15.60;;;7.13;;
39654;SDS011;25336;59.944;11.010;2023-02-14T15:11:05;9.48;;;6.32;;
39654;SDS011;25336;59.944;11.010;2023-02-14T15:13:45;8.52;;;5.45;;
39654;SDS011;25336;59.944;11.010;2023-02-14T15:16:29;5.88;;;4.53;;
39654;SDS011;25336;59.944;11.010;2023-02-14T15:19:06;5.72;;;3.13;;
39654;SDS011;25336;59.944;11.010;2023-02-14T15:21:44;7.30;;;3.55;;
39654;SDS011;25336;59.944;11.010;2023-02-14T15:24:14;4.85;;;2.83;;
39654;SDS011;25336;59.944;11.010;2023-02-14T15:26:43;3.47;;;2.88;;
39654;SDS011;25336;59.944;11.010;2023-02-14T15:29:21;3.88;;;2.80;;
39654;SDS011;25336;59.944;11.010;2023-02-14T15:31:47;2.85;;;2.63;;
39654;SDS011;25336;59.944;11.010;2023-02-14T15:34:14;5.05;;;2.80;;
39654;SDS011;25336;59.944;11.010;2023-02-14T15:36:40;4.10;;;2.88;;
39654;SDS011;25336;59.944;11.010;2023-02-14T15:39:10;7.72;;;4.53;;
39654;SDS011;25336;59.944;11.010;2023-02-14T15:41:43;4.25;;;3.85;;
39654;SDS011;25336;59.944;11.010;2023-02-14T15:44:22;4.80;;;4.30;;
39654;SDS011;25336;59.944;11.010;2023-02-14T15:46:57;9.50;;;4.68;;
39654;SDS011;25336;59.944;11.010;2023-02-14T15:49:30;8.32;;;5.32;;
39654;SDS011;25336;59.944;11.010;2023-02-14T15:51:59;6.20;;;5.60;;
39654;SDS011;25336;59.944;11.010;2023-02-14T15:56:59;8.80;;;5.20;;
39654;SDS011;25336;59.944;11.010;2023-02-14T15:59:26;10.02;;;6.47;;
39654;SDS011;25336;59.944;11.010;2023-02-14T16:01:56;6.05;;;4.97;;
39654;SDS011;25336;59.944;11.010;2023-02-14T16:04:25;8.40;;;5.90;;
39654;SDS011;25336;59.944;11.010;2023-02-14T16:09:45;6.13;;;4.95;;
39654;SDS011;25336;59.944;11.010;2023-02-14T16:12:25;6.50;;;5.53;;
39654;SDS011;25336;59.944;11.010;2023-02-14T16:14:59;10.63;;;6.75;;
39654;SDS011;25336;59.944;11.010;2023-02-14T16:17:31;6.32;;;5.68;;
39654;SDS011;25336;59.944;11.010;2023-02-14T16:20:17;6.53;;;5.45;;
39654;SDS011;25336;59.944;11.010;2023-02-14T16:22:47;9.25;;;5.90;;
39654;SDS011;25336;59.944;11.010;2023-02-14T16:25:14;9.30;;;7.30;;
39654;SDS011;25336;59.944;11.010;2023-02-14T16:27:40;22.05;;;6.68;;
39654;SDS011;25336;59.944;11.010;2023-02-14T16:30:06;7.32;;;5.95;;
39654;SDS011;25336;59.944;11.010;2023-02-14T16:32:38;9.35;;;5.70;;
39654;SDS011;25336;59.944;11.010;2023-02-14T16:35:04;13.13;;;7.47;;
39654;SDS011;25336;59.944;11.010;2023-02-14T16:37:30;16.67;;;11.65;;
39654;SDS011;25336;59.944;11.010;2023-02-14T16:39:57;25.30;;;11.05;;
39654;SDS011;25336;59.944;11.010;2023-02-14T16:42:24;30.40;;;14.07;;
39654;SDS011;25336;59.944;11.010;2023-02-14T16:44:50;26.42;;;13.35;;
39654;SDS011;25336;59.944;11.010;2023-02-14T16:47:17;27.83;;;13.95;;